Portada
METAR-TAF:

METAR-TAF

Aeroports :

Illa de Pasqua, Xile

latitud: 27-09S, longitud: 109-25W, altitud: 51 m

Observació

L'informe es va fer fa 41 minuts, a les 08:00 UTC
Vent 7 kt del Est
Temperatura 19°C
Humitat 83%
Pressió 1025 hPa
Visibilitat 10 km o més
Cel ennuvolat a una alçada de 3000 ft
Cel ennuvolat a una alçada de 3500 ft

METAR: SCIP 280800Z 08007KT 9999 BKN030 BKN035 19/16 Q1025 NOSIG

Hora: 03:41 (08:41 UTC)

Pronòstic

L'informe es va fer fa 4 hores i 36 minuts, a les 04:05 UTC
Pronòstic vàlid del 28 a les 06 UTC al 29 a les 06 UTC
Vent 7 kt del Est
Visibilitat 10 km o més
Núvols disperses a una alçada de 1600 ft
Cel ennuvolat a una alçada de 3000 ft
Temporalment
l' 28 a les 18 UTC al 29 a les 04 UTC
Vent 12 kt del Nord-Est
Visibilitat: 4000 m
Núvols disperses a una alçada de 700 ft
Cel cobert a una alçada de 1500 ft
xàfecs de pluja

TAF: SCIP 280405Z 2806/2906 08007KT 9999 SCT016 BKN030 TN17/2810Z TX23/2819Z TEMPO 2818/2904 05012KT 4000 -SHRA SCT007 OVC015

Observacions i pronòstics meteorològics de més de 4000 aeroports (METAR i TAF).

Les estacions disponibles són els punts grocs i vermells al mapa.

Posi el ratolí al punt desitjat per veure el nom de l'estació.

Feu clic per veure les observacions i els pronòstics meteorològics.

Per canviar el mapa: feu clic els botons verds amb una creu de color negre per apropar; al botó verd amb un guió per allunyar la imatge; o en les fletxes verdes per a mapes adjacents.


METAR-TAF: